createdAt,value
2023-05-15T00:01:51.978Z,10.04
2023-05-15T00:04:20.253Z,9.97
2023-05-15T00:06:49.042Z,9.90
2023-05-15T00:09:17.464Z,9.85
2023-05-15T00:11:45.604Z,9.84
2023-05-15T00:14:13.941Z,9.84
2023-05-15T00:16:42.462Z,9.79
2023-05-15T00:19:10.966Z,9.71
2023-05-15T00:21:39.225Z,9.63
2023-05-15T00:24:07.709Z,9.55
2023-05-15T00:26:37.059Z,9.50
2023-05-15T00:29:04.478Z,9.38
2023-05-15T00:31:33.748Z,9.27
2023-05-15T00:34:01.456Z,9.16
2023-05-15T00:36:29.809Z,9.04
2023-05-15T00:38:58.663Z,9.00
2023-05-15T00:41:28.999Z,8.90
2023-05-15T00:44:00.888Z,8.83
2023-05-15T00:46:33.391Z,8.83
2023-05-15T00:49:04.087Z,8.69
2023-05-15T00:51:33.727Z,8.63
2023-05-15T00:54:05.094Z,8.58
2023-05-15T00:56:35.830Z,8.52
2023-05-15T00:59:07.962Z,8.46
2023-05-15T01:01:38.236Z,8.43
2023-05-15T01:04:08.252Z,8.40
2023-05-15T01:06:38.526Z,8.35
2023-05-15T01:09:11.150Z,8.32
2023-05-15T01:11:43.612Z,8.29
2023-05-15T01:14:13.142Z,8.26
2023-05-15T01:16:42.640Z,8.21
2023-05-15T01:19:13.102Z,8.16
2023-05-15T01:22:04.229Z,8.13
2023-05-15T01:25:08.775Z,8.10
2023-05-15T01:27:51.750Z,8.08
2023-05-15T01:30:31.193Z,8.06
2023-05-15T01:33:18.674Z,8.01
2023-05-15T01:36:33.863Z,7.96
2023-05-15T01:39:07.894Z,7.92
2023-05-15T01:42:03.120Z,7.88
2023-05-15T01:44:41.442Z,7.85
2023-05-15T01:47:20.082Z,7.83
2023-05-15T01:49:57.729Z,7.80
2023-05-15T01:52:38.771Z,7.75
2023-05-15T01:55:11.164Z,7.71
2023-05-15T01:57:43.544Z,7.72
2023-05-15T02:00:16.088Z,7.71
2023-05-15T02:02:50.195Z,7.69
2023-05-15T02:05:23.287Z,7.65
2023-05-15T02:07:55.684Z,7.62
2023-05-15T02:10:27.048Z,7.60
2023-05-15T02:12:57.937Z,7.57
2023-05-15T02:15:30.341Z,7.54
2023-05-15T02:18:00.891Z,7.51
2023-05-15T02:20:31.083Z,7.49
2023-05-15T02:23:01.427Z,7.49
2023-05-15T02:26:25.965Z,7.46
2023-05-15T02:29:23.666Z,7.45
2023-05-15T02:32:26.852Z,7.45
2023-05-15T02:35:16.670Z,7.44
2023-05-15T02:37:55.783Z,7.44
2023-05-15T02:40:28.390Z,7.42
2023-05-15T02:43:00.133Z,7.40
2023-05-15T02:45:29.409Z,7.39
2023-05-15T02:48:01.678Z,7.40
2023-05-15T02:50:31.472Z,7.36
2023-05-15T02:53:10.057Z,7.34
2023-05-15T02:55:40.494Z,7.31
2023-05-15T02:58:10.931Z,7.26
2023-05-15T03:00:41.028Z,7.22
2023-05-15T03:03:11.021Z,7.19
2023-05-15T03:05:40.898Z,7.14
2023-05-15T03:08:10.803Z,7.08
2023-05-15T03:10:40.915Z,7.13
2023-05-15T03:13:11.187Z,7.20
2023-05-15T03:15:43.616Z,7.11
2023-05-15T03:18:11.533Z,7.03
2023-05-15T03:20:41.480Z,6.90
2023-05-15T03:23:11.451Z,6.80
2023-05-15T03:25:41.518Z,6.79
2023-05-15T03:28:11.887Z,6.79
2023-05-15T03:30:45.706Z,6.75
2023-05-15T03:33:15.713Z,6.73
2023-05-15T03:35:46.032Z,6.73
2023-05-15T03:38:15.863Z,6.68
2023-05-15T03:40:46.136Z,6.67
2023-05-15T03:43:16.363Z,6.67
2023-05-15T03:45:46.455Z,6.65
2023-05-15T03:48:16.366Z,6.64
2023-05-15T03:50:47.080Z,6.72
2023-05-15T03:53:17.371Z,6.73
2023-05-15T03:55:47.486Z,6.61
2023-05-15T03:58:17.237Z,6.53
2023-05-15T04:00:47.216Z,6.51
2023-05-15T04:03:15.799Z,6.51
2023-05-15T04:05:44.428Z,6.53
2023-05-15T04:08:12.685Z,6.58
2023-05-15T04:10:41.233Z,6.68
2023-05-15T04:13:10.066Z,6.64
2023-05-15T04:15:38.923Z,6.66
2023-05-15T04:18:06.644Z,6.70
2023-05-15T04:20:35.794Z,6.78
2023-05-15T04:23:05.972Z,6.85
2023-05-15T04:25:33.385Z,7.00
2023-05-15T04:28:01.961Z,7.19
2023-05-15T04:30:30.227Z,7.44
2023-05-15T04:32:58.977Z,7.62
2023-05-15T04:35:27.811Z,7.72
2023-05-15T04:37:56.185Z,7.84
2023-05-15T04:40:24.575Z,7.98
2023-05-15T04:42:53.107Z,8.10
2023-05-15T04:45:21.766Z,8.22
2023-05-15T04:47:49.997Z,8.31
2023-05-15T04:50:18.392Z,8.40
2023-05-15T04:52:47.312Z,8.51
2023-05-15T04:55:15.832Z,8.53
2023-05-15T04:57:46.559Z,8.53
2023-05-15T05:00:16.425Z,8.53
2023-05-15T05:02:44.392Z,8.50
2023-05-15T05:05:14.882Z,8.46
2023-05-15T05:07:46.573Z,8.46
2023-05-15T05:10:17.047Z,8.43
2023-05-15T05:12:46.886Z,8.42
2023-05-15T05:15:16.815Z,8.47
2023-05-15T05:17:47.261Z,8.53
2023-05-15T05:20:17.344Z,8.56
2023-05-15T05:22:47.054Z,8.63
2023-05-15T05:25:15.454Z,8.71
2023-05-15T05:27:43.949Z,8.83
2023-05-15T05:30:13.164Z,8.97
2023-05-15T05:32:40.917Z,9.08
2023-05-15T05:35:09.893Z,9.11
2023-05-15T05:37:40.812Z,9.23
2023-05-15T05:40:11.010Z,9.41
2023-05-15T05:42:38.460Z,9.61
2023-05-15T05:45:08.207Z,9.84
2023-05-15T05:47:38.328Z,10.26
2023-05-15T05:50:08.464Z,10.74
2023-05-15T05:52:38.721Z,11.19
2023-05-15T05:55:10.384Z,11.67
2023-05-15T05:57:40.881Z,12.15
2023-05-15T06:00:12.967Z,12.51
2023-05-15T06:02:43.513Z,12.60
2023-05-15T06:05:14.851Z,12.61
2023-05-15T06:07:45.141Z,12.58
2023-05-15T06:10:13.202Z,12.58
2023-05-15T06:12:40.992Z,12.64
2023-05-15T06:15:09.795Z,12.69
2023-05-15T06:17:38.535Z,12.72
2023-05-15T06:20:08.885Z,12.83
2023-05-15T06:22:38.898Z,12.89
2023-05-15T06:25:13.934Z,12.94
2023-05-15T06:27:44.200Z,13.03
2023-05-15T06:30:15.062Z,13.12
2023-05-15T06:32:46.003Z,13.14
2023-05-15T06:35:16.315Z,13.13
2023-05-15T06:37:50.616Z,13.11
2023-05-15T06:40:21.656Z,13.17
2023-05-15T06:42:51.835Z,13.27
2023-05-15T06:45:22.055Z,13.35
2023-05-15T06:47:52.259Z,13.44
2023-05-15T06:50:22.602Z,13.51
2023-05-15T06:52:52.791Z,13.58
2023-05-15T06:55:23.163Z,13.71
2023-05-15T06:57:53.513Z,13.85
2023-05-15T07:00:23.753Z,13.97
2023-05-15T07:02:54.009Z,14.12
2023-05-15T07:05:24.325Z,14.23
2023-05-15T07:07:55.018Z,14.27
2023-05-15T07:10:25.535Z,14.33
2023-05-15T07:12:56.051Z,14.53
2023-05-15T07:15:26.553Z,14.66
2023-05-15T07:17:56.911Z,14.95
2023-05-15T07:20:30.298Z,15.14
2023-05-15T07:23:03.769Z,15.27
2023-05-15T07:25:33.996Z,15.56
2023-05-15T07:28:04.710Z,15.66
2023-05-15T07:30:34.968Z,15.84
2023-05-15T07:33:05.255Z,16.16
2023-05-15T07:35:35.672Z,16.32
2023-05-15T07:38:06.010Z,16.67
2023-05-15T07:40:36.448Z,16.88
2023-05-15T07:43:06.901Z,17.05
2023-05-15T07:45:37.653Z,17.04
2023-05-15T07:48:16.670Z,17.14
2023-05-15T07:50:48.527Z,17.11
2023-05-15T07:53:18.850Z,16.98
2023-05-15T07:55:49.208Z,17.01
2023-05-15T07:58:19.548Z,17.00
2023-05-15T08:00:49.910Z,17.19
2023-05-15T08:03:20.190Z,17.20
2023-05-15T08:05:48.599Z,17.25
2023-05-15T08:08:17.176Z,17.20
2023-05-15T08:10:46.063Z,17.24
2023-05-15T08:13:14.125Z,17.20
2023-05-15T08:15:43.588Z,17.22
2023-05-15T08:18:11.847Z,17.23
2023-05-15T08:20:39.639Z,17.20
2023-05-15T08:23:08.958Z,17.26
2023-05-15T08:25:36.468Z,17.28
2023-05-15T08:28:06.052Z,17.33
2023-05-15T08:30:33.446Z,17.42
2023-05-15T08:33:01.888Z,17.47
2023-05-15T08:35:30.328Z,17.51
2023-05-15T08:37:59.847Z,17.56
2023-05-15T08:43:17.148Z,17.67
2023-05-15T08:45:45.905Z,17.73
2023-05-15T08:48:21.902Z,17.95
2023-05-15T08:50:51.414Z,18.03
2023-05-15T08:53:21.375Z,18.07
2023-05-15T08:55:52.350Z,18.08
2023-05-15T08:58:26.153Z,18.03
2023-05-15T09:00:59.249Z,17.89
2023-05-15T09:03:29.705Z,17.83
2023-05-15T09:06:02.040Z,17.74
2023-05-15T09:08:34.561Z,17.73
2023-05-15T09:11:08.121Z,17.57
2023-05-15T09:13:38.302Z,17.45
2023-05-15T09:16:08.547Z,17.37
2023-05-15T09:18:41.119Z,17.27
2023-05-15T09:21:33.987Z,17.17
2023-05-15T09:24:19.288Z,17.05
2023-05-15T09:27:05.244Z,16.97
2023-05-15T09:29:39.282Z,16.88
2023-05-15T09:32:15.823Z,16.81
2023-05-15T09:34:46.533Z,16.78
2023-05-15T09:37:34.395Z,16.84
2023-05-15T09:40:11.454Z,16.82
2023-05-15T09:42:39.342Z,16.89
2023-05-15T09:45:18.757Z,16.92
2023-05-15T09:47:47.904Z,17.01
2023-05-15T09:50:23.827Z,17.06
2023-05-15T09:52:54.271Z,17.04
2023-05-15T09:55:24.837Z,17.09
2023-05-15T09:58:16.701Z,17.13
2023-05-15T10:00:49.621Z,17.19
2023-05-15T10:03:21.126Z,17.26
2023-05-15T10:06:01.430Z,17.35
2023-05-15T10:08:31.747Z,17.38
2023-05-15T10:11:04.247Z,17.42
2023-05-15T10:13:37.436Z,17.54
2023-05-15T10:16:08.610Z,17.60
2023-05-15T10:18:42.106Z,17.69
2023-05-15T10:21:18.442Z,17.93
2023-05-15T10:23:51.198Z,18.21
2023-05-15T10:26:34.140Z,18.43
2023-05-15T10:29:17.089Z,18.64
2023-05-15T10:31:50.652Z,18.71
2023-05-15T10:34:22.030Z,18.77
2023-05-15T10:36:52.769Z,18.90
2023-05-15T10:39:24.490Z,19.03
2023-05-15T10:41:55.998Z,19.25
2023-05-15T10:44:24.064Z,19.44
2023-05-15T10:46:56.057Z,19.65
2023-05-15T10:49:26.057Z,19.99
2023-05-15T10:51:56.290Z,20.11
2023-05-15T10:54:24.174Z,20.17
2023-05-15T10:56:57.353Z,20.09
2023-05-15T10:59:35.057Z,20.13
2023-05-15T11:02:39.560Z,19.86
2023-05-15T11:05:11.922Z,19.85
2023-05-15T11:07:42.430Z,19.84
2023-05-15T11:10:31.008Z,19.70
2023-05-15T11:13:03.206Z,19.43
2023-05-15T11:15:45.795Z,19.26
2023-05-15T11:18:15.916Z,19.38
2023-05-15T11:20:52.159Z,19.33
2023-05-15T11:23:23.892Z,19.28
2023-05-15T11:25:57.709Z,19.14
2023-05-15T11:28:31.288Z,19.17
2023-05-15T11:31:07.362Z,19.06
2023-05-15T11:33:40.802Z,18.97
2023-05-15T11:36:16.016Z,18.91
2023-05-15T11:38:51.365Z,18.87
2023-05-15T11:41:22.212Z,18.90
2023-05-15T11:43:51.178Z,18.98
2023-05-15T11:46:18.644Z,19.05
2023-05-15T11:48:48.227Z,19.08
2023-05-15T11:51:27.653Z,19.22
2023-05-15T11:53:58.314Z,19.36
2023-05-15T11:56:29.121Z,19.50
2023-05-15T11:59:03.893Z,19.44
2023-05-15T12:01:47.868Z,19.44
2023-05-15T12:04:19.839Z,19.52
2023-05-15T12:06:50.174Z,19.60
2023-05-15T12:09:22.729Z,19.64
2023-05-15T12:11:56.952Z,19.88
2023-05-15T12:14:31.965Z,19.91
2023-05-15T12:17:06.134Z,19.95
2023-05-15T12:19:38.902Z,20.21
2023-05-15T12:22:08.676Z,20.45
2023-05-15T12:24:39.982Z,20.79
2023-05-15T12:27:10.400Z,20.90
2023-05-15T12:29:43.042Z,21.21
2023-05-15T12:32:12.462Z,21.46
2023-05-15T12:34:42.390Z,21.43
2023-05-15T12:37:15.982Z,21.64
2023-05-15T12:39:54.734Z,21.77
2023-05-15T12:42:24.263Z,21.63
2023-05-15T12:44:57.340Z,21.75
2023-05-15T12:47:28.529Z,21.63
2023-05-15T12:49:59.075Z,21.53
2023-05-15T12:52:29.657Z,21.41
2023-05-15T12:55:02.886Z,21.17
2023-05-15T12:57:31.671Z,20.88
2023-05-15T13:00:01.589Z,21.03
2023-05-15T13:02:31.611Z,21.00
2023-05-15T13:05:05.155Z,21.07
2023-05-15T13:07:34.662Z,21.25
2023-05-15T13:10:09.715Z,21.30
2023-05-15T13:12:45.002Z,21.46
2023-05-15T13:15:33.500Z,21.48
2023-05-15T13:18:07.371Z,21.79
2023-05-15T13:20:48.587Z,21.43
2023-05-15T13:23:24.267Z,21.09
2023-05-15T13:25:54.463Z,20.92
2023-05-15T13:28:24.614Z,21.30
2023-05-15T13:30:54.915Z,22.04
2023-05-15T13:33:25.633Z,22.37
2023-05-15T13:35:57.505Z,22.49
2023-05-15T13:38:27.651Z,22.28
2023-05-15T13:40:58.640Z,22.14
2023-05-15T13:43:28.901Z,22.00
2023-05-15T13:45:59.250Z,22.30
2023-05-15T13:48:29.443Z,22.28
2023-05-15T13:50:59.619Z,22.44
2023-05-15T13:56:06.093Z,22.81
2023-05-15T13:58:36.563Z,22.90
2023-05-15T14:01:07.492Z,22.37
2023-05-15T14:03:37.879Z,21.31
2023-05-15T14:06:09.372Z,20.33
2023-05-15T14:08:39.676Z,19.14
2023-05-15T14:11:09.842Z,18.08
2023-05-15T14:13:40.336Z,18.00
2023-05-15T14:16:10.476Z,17.99
2023-05-15T14:18:41.080Z,17.73
2023-05-15T14:21:11.387Z,17.40
2023-05-15T14:23:41.572Z,17.17
2023-05-15T14:26:11.835Z,17.11
2023-05-15T14:28:42.058Z,17.13
2023-05-15T14:31:10.923Z,17.20
2023-05-15T14:33:41.347Z,16.85
2023-05-15T14:36:11.288Z,16.99
2023-05-15T14:38:39.712Z,17.32
2023-05-15T14:41:08.290Z,17.44
2023-05-15T14:43:36.722Z,17.52
2023-05-15T14:46:05.540Z,17.73
2023-05-15T14:48:34.182Z,18.25
2023-05-15T14:51:02.728Z,18.82
2023-05-15T14:53:31.074Z,19.41
2023-05-15T14:56:01.307Z,19.55
2023-05-15T14:58:32.589Z,19.34
2023-05-15T15:01:03.850Z,19.28
2023-05-15T15:03:34.437Z,19.55
2023-05-15T15:06:05.102Z,19.84
2023-05-15T15:08:35.304Z,19.72
2023-05-15T15:11:06.538Z,20.03
2023-05-15T15:13:36.740Z,20.34
2023-05-15T15:16:08.332Z,19.76
2023-05-15T15:18:38.615Z,19.64
2023-05-15T15:21:09.449Z,19.50
2023-05-15T15:23:39.562Z,19.08
2023-05-15T15:26:09.730Z,18.92
2023-05-15T15:28:40.077Z,18.87
2023-05-15T15:31:11.225Z,18.74
2023-05-15T15:33:41.636Z,18.54
2023-05-15T15:36:11.924Z,18.39
2023-05-15T15:38:43.948Z,18.46
2023-05-15T15:41:14.547Z,18.57
2023-05-15T15:43:44.704Z,18.69
2023-05-15T15:46:15.137Z,18.88
2023-05-15T15:48:45.340Z,19.21
2023-05-15T15:51:18.587Z,19.87
2023-05-15T15:53:48.776Z,20.52
2023-05-15T15:56:19.070Z,20.71
2023-05-15T15:58:49.436Z,20.29
2023-05-15T16:01:17.977Z,19.63
2023-05-15T16:03:46.297Z,19.15
2023-05-15T16:06:14.595Z,18.74
2023-05-15T16:08:43.082Z,18.48
2023-05-15T16:11:11.722Z,18.37
2023-05-15T16:13:41.984Z,18.30
2023-05-15T16:16:10.699Z,18.14
2023-05-15T16:18:40.935Z,17.94
2023-05-15T16:21:09.367Z,17.96
2023-05-15T16:23:40.509Z,17.89
2023-05-15T16:26:11.438Z,17.72
2023-05-15T16:28:41.595Z,17.63
2023-05-15T16:31:11.950Z,17.40
2023-05-15T16:33:42.103Z,17.22
2023-05-15T16:36:12.243Z,17.06
2023-05-15T16:38:42.797Z,16.96
2023-05-15T16:41:13.066Z,16.88
2023-05-15T16:43:44.102Z,16.80
2023-05-15T16:46:14.493Z,16.75
2023-05-15T16:48:44.696Z,16.66
2023-05-15T16:51:15.048Z,16.61
2023-05-15T16:53:45.481Z,16.53
2023-05-15T16:56:15.694Z,16.54
2023-05-15T16:58:46.054Z,16.45
2023-05-15T17:01:16.522Z,16.32
2023-05-15T17:03:47.005Z,16.26
2023-05-15T17:06:17.358Z,16.16
2023-05-15T17:08:47.554Z,16.03
2023-05-15T17:11:17.723Z,15.88
2023-05-15T17:13:47.921Z,15.91
2023-05-15T17:16:18.097Z,15.85
2023-05-15T17:18:48.322Z,15.81
2023-05-15T17:21:18.596Z,15.78
2023-05-15T17:23:53.252Z,15.67
2023-05-15T17:26:23.980Z,15.38
2023-05-15T17:28:54.183Z,15.17
2023-05-15T17:31:24.513Z,15.01
2023-05-15T17:33:54.779Z,14.89
2023-05-15T17:36:24.953Z,14.82
2023-05-15T17:38:55.181Z,14.76
2023-05-15T17:41:25.987Z,14.72
2023-05-15T17:43:56.265Z,14.64
2023-05-15T17:46:26.475Z,14.57
2023-05-15T17:48:56.726Z,14.59
2023-05-15T17:51:27.068Z,14.52
2023-05-15T17:53:57.172Z,14.44
2023-05-15T17:56:28.141Z,14.42
2023-05-15T17:58:58.249Z,14.40
2023-05-15T18:01:28.614Z,14.39
2023-05-15T18:03:58.931Z,14.34
2023-05-15T18:06:29.311Z,14.27
2023-05-15T18:09:00.015Z,14.21
2023-05-15T18:11:28.100Z,14.16
2023-05-15T18:13:56.787Z,14.10
2023-05-15T18:16:25.292Z,14.01
2023-05-15T18:18:53.888Z,14.04
2023-05-15T18:21:22.206Z,14.02
2023-05-15T18:23:50.692Z,13.99
2023-05-15T18:26:19.178Z,14.02
2023-05-15T18:28:48.077Z,14.07
2023-05-15T18:31:16.629Z,14.06
2023-05-15T18:33:45.213Z,14.09
2023-05-15T18:36:13.410Z,14.08
2023-05-15T18:38:41.951Z,14.01
2023-05-15T18:41:10.234Z,13.98
2023-05-15T18:43:38.845Z,13.90
2023-05-15T18:46:07.382Z,13.88
2023-05-15T18:48:35.979Z,13.78
2023-05-15T18:51:04.664Z,13.67
2023-05-15T18:53:32.878Z,13.60
2023-05-15T18:56:01.203Z,13.59
2023-05-15T18:58:29.660Z,13.52
2023-05-15T19:00:58.194Z,13.47
2023-05-15T19:03:26.898Z,13.42
2023-05-15T19:05:57.323Z,13.37
2023-05-15T19:08:26.833Z,13.29
2023-05-15T19:10:55.279Z,13.32
2023-05-15T19:13:23.755Z,13.27
2023-05-15T19:15:53.927Z,13.16
2023-05-15T19:18:24.097Z,13.12
2023-05-15T19:20:54.482Z,13.10
2023-05-15T19:23:25.161Z,13.13
2023-05-15T19:25:55.343Z,13.05
2023-05-15T19:28:25.598Z,13.03
2023-05-15T19:30:55.908Z,13.04
2023-05-15T19:33:26.214Z,13.03
2023-05-15T19:35:56.432Z,12.99
2023-05-15T19:38:26.696Z,12.95
2023-05-15T19:40:57.010Z,12.94
2023-05-15T19:43:27.716Z,12.96
2023-05-15T19:45:58.004Z,12.89
2023-05-15T19:48:28.924Z,12.89
2023-05-15T19:50:59.110Z,12.90
2023-05-15T19:53:29.339Z,12.92
2023-05-15T19:55:59.494Z,12.94
2023-05-15T19:58:30.334Z,12.89
2023-05-15T20:01:00.483Z,12.80
2023-05-15T20:03:34.002Z,12.77
2023-05-15T20:06:04.372Z,12.76
2023-05-15T20:08:34.551Z,12.76
2023-05-15T20:11:05.012Z,12.76
2023-05-15T20:13:35.462Z,12.80
2023-05-15T20:16:10.872Z,12.75
2023-05-15T20:18:41.856Z,12.70
2023-05-15T20:21:12.153Z,12.69
2023-05-15T20:23:42.290Z,12.67
2023-05-15T20:26:12.456Z,12.59
2023-05-15T20:28:44.418Z,12.55
2023-05-15T20:31:15.693Z,12.55
2023-05-15T20:33:46.280Z,12.47
2023-05-15T20:36:16.886Z,12.41
2023-05-15T20:38:47.774Z,12.37
2023-05-15T20:41:18.327Z,12.29
2023-05-15T20:43:48.464Z,12.25
2023-05-15T20:46:18.828Z,12.19
2023-05-15T20:48:49.239Z,12.16
2023-05-15T20:51:17.675Z,12.11
2023-05-15T20:53:45.998Z,12.05
2023-05-15T20:56:14.314Z,11.98
2023-05-15T20:58:44.480Z,11.94
2023-05-15T21:01:15.562Z,11.91
2023-05-15T21:03:46.066Z,11.91
2023-05-15T21:06:16.379Z,11.97
2023-05-15T21:08:46.549Z,11.97
2023-05-15T21:11:16.775Z,11.97
2023-05-15T21:13:46.957Z,11.97
2023-05-15T21:16:17.133Z,11.99
2023-05-15T21:18:49.117Z,11.95
2023-05-15T21:21:19.732Z,11.90
2023-05-15T21:23:50.181Z,11.85
2023-05-15T21:26:20.359Z,11.80
2023-05-15T21:28:50.704Z,11.77
2023-05-15T21:31:20.937Z,11.80
2023-05-15T21:33:51.129Z,11.84
2023-05-15T21:36:22.067Z,11.81
2023-05-15T21:38:52.277Z,11.81
2023-05-15T21:41:22.437Z,11.77
2023-05-15T21:43:52.827Z,11.74
2023-05-15T21:46:23.961Z,11.71
2023-05-15T21:48:54.255Z,11.70
2023-05-15T21:51:24.603Z,11.71
2023-05-15T21:53:54.950Z,11.74
2023-05-15T21:56:25.252Z,11.84
2023-05-15T21:58:55.628Z,11.91
2023-05-15T22:01:25.982Z,11.96
2023-05-15T22:03:56.746Z,12.03
2023-05-15T22:06:27.113Z,12.11
2023-05-15T22:08:58.010Z,12.13
2023-05-15T22:11:28.140Z,12.16
2023-05-15T22:13:58.460Z,12.21
2023-05-15T22:16:28.819Z,12.24
2023-05-15T22:18:57.113Z,12.29
2023-05-15T22:21:25.650Z,12.31
2023-05-15T22:23:54.105Z,12.31
2023-05-15T22:26:23.734Z,12.33
2023-05-15T22:28:57.346Z,12.33
2023-05-15T22:31:28.727Z,12.28
2023-05-15T22:33:59.088Z,12.27
2023-05-15T22:36:31.064Z,12.35
2023-05-15T22:39:01.688Z,12.35
2023-05-15T22:41:32.465Z,12.35
2023-05-15T22:44:03.613Z,12.31
2023-05-15T22:46:33.980Z,12.32
2023-05-15T22:49:04.631Z,12.28
2023-05-15T22:51:35.103Z,12.33
2023-05-15T22:54:05.410Z,12.28
2023-05-15T22:56:35.673Z,12.24
2023-05-15T22:59:05.969Z,12.16
2023-05-15T23:01:36.139Z,12.10
2023-05-15T23:04:07.684Z,12.03
2023-05-15T23:06:38.555Z,12.02
2023-05-15T23:09:09.296Z,11.95
2023-05-15T23:11:39.584Z,11.93
2023-05-15T23:14:10.218Z,11.85
2023-05-15T23:16:40.597Z,11.92
2023-05-15T23:19:10.995Z,11.89
2023-05-15T23:21:41.275Z,11.85
2023-05-15T23:24:11.537Z,11.82
2023-05-15T23:26:41.724Z,11.82
2023-05-15T23:29:12.550Z,11.84
2023-05-15T23:31:45.749Z,11.76
2023-05-15T23:34:16.309Z,11.69
2023-05-15T23:36:46.554Z,11.62
2023-05-15T23:39:16.894Z,11.60
2023-05-15T23:41:47.090Z,11.58
2023-05-15T23:44:17.366Z,11.53
2023-05-15T23:46:47.671Z,11.44
2023-05-15T23:49:18.118Z,11.35
2023-05-15T23:51:48.324Z,11.32
2023-05-15T23:54:18.548Z,11.27
2023-05-15T23:56:48.751Z,11.23
2023-05-15T23:59:19.187Z,11.13
